createdAt,value
2019-04-30T00:00:03.834Z,10.91
2019-04-30T00:02:39.991Z,10.91
2019-04-30T00:05:09.979Z,10.92
2019-04-30T00:07:35.751Z,10.93
2019-04-30T00:10:06.320Z,10.93
2019-04-30T00:12:37.976Z,10.93
2019-04-30T00:15:00.652Z,10.91
2019-04-30T00:17:26.670Z,10.90
2019-04-30T00:19:58.248Z,10.89
2019-04-30T00:22:30.949Z,10.88
2019-04-30T00:24:50.030Z,10.87
2019-04-30T00:27:21.093Z,10.86
2019-04-30T00:29:45.735Z,10.86
2019-04-30T00:32:12.007Z,10.87
2019-04-30T00:34:39.337Z,10.86
2019-04-30T00:37:07.381Z,10.88
2019-04-30T00:39:35.558Z,10.89
2019-04-30T00:42:01.848Z,10.89
2019-04-30T00:44:28.540Z,10.89
2019-04-30T00:46:55.904Z,10.87
2019-04-30T00:49:23.340Z,10.84
2019-04-30T00:51:55.843Z,10.84
2019-04-30T00:54:22.511Z,10.83
2019-04-30T00:56:46.322Z,10.82
2019-04-30T00:59:12.450Z,10.79
2019-04-30T01:01:56.355Z,10.80
2019-04-30T01:04:28.168Z,10.79
2019-04-30T01:06:52.472Z,10.80
2019-04-30T01:09:18.685Z,10.81
2019-04-30T01:11:48.094Z,10.80
2019-04-30T01:14:12.834Z,10.77
2019-04-30T01:16:39.446Z,10.79
2019-04-30T01:19:12.661Z,10.78
2019-04-30T01:21:33.898Z,10.80
2019-04-30T01:24:00.013Z,10.80
2019-04-30T01:26:27.663Z,10.81
2019-04-30T01:28:58.512Z,10.81
2019-04-30T01:31:22.242Z,10.81
2019-04-30T01:33:48.945Z,10.80
2019-04-30T01:36:15.221Z,10.79
2019-04-30T01:38:44.804Z,10.79
2019-04-30T01:41:09.611Z,10.80
2019-04-30T01:43:35.731Z,10.83
2019-04-30T01:46:12.138Z,10.82
2019-04-30T01:48:29.918Z,10.82
2019-04-30T01:50:56.046Z,10.81
2019-04-30T01:53:22.196Z,10.81
2019-04-30T01:55:52.733Z,10.82
2019-04-30T01:58:20.800Z,10.82
2019-04-30T02:00:54.642Z,10.81
2019-04-30T02:03:20.836Z,10.82
2019-04-30T02:05:46.969Z,10.81
2019-04-30T02:08:13.078Z,10.81
2019-04-30T02:10:40.363Z,10.80
2019-04-30T02:13:06.646Z,10.80
2019-04-30T02:15:32.792Z,10.80
2019-04-30T02:17:58.955Z,10.80
2019-04-30T02:20:25.191Z,10.79
2019-04-30T02:22:51.309Z,10.79
2019-04-30T02:25:19.383Z,10.71
2019-04-30T02:27:45.435Z,10.77
2019-04-30T02:30:11.599Z,10.77
2019-04-30T02:32:39.557Z,10.75
2019-04-30T02:35:19.863Z,10.74
2019-04-30T02:38:04.347Z,10.76
2019-04-30T02:40:33.181Z,10.74
2019-04-30T02:43:01.756Z,10.74
2019-04-30T02:45:29.994Z,10.75
2019-04-30T02:47:56.628Z,10.76
2019-04-30T02:50:25.079Z,10.76
2019-04-30T02:52:51.949Z,10.75
2019-04-30T02:55:21.717Z,10.76
2019-04-30T02:57:49.905Z,10.75
2019-04-30T03:00:20.592Z,10.76
2019-04-30T03:02:45.717Z,10.76
2019-04-30T03:05:13.495Z,10.77
2019-04-30T03:07:40.689Z,10.78
2019-04-30T03:10:10.040Z,10.78
2019-04-30T03:12:35.675Z,10.79
2019-04-30T03:15:02.151Z,10.80
2019-04-30T03:17:46.670Z,10.78
2019-04-30T03:20:34.735Z,10.78
2019-04-30T03:22:54.510Z,10.77
2019-04-30T03:25:20.512Z,10.75
2019-04-30T03:27:46.582Z,10.75
2019-04-30T03:30:12.804Z,10.75
2019-04-30T03:32:42.869Z,10.75
2019-04-30T03:35:06.869Z,10.75
2019-04-30T03:37:32.992Z,10.76
2019-04-30T03:40:00.663Z,10.74
2019-04-30T03:42:29.434Z,10.73
2019-04-30T03:44:54.959Z,10.73
2019-04-30T03:47:21.069Z,10.74
2019-04-30T03:49:49.799Z,10.74
2019-04-30T03:52:15.110Z,10.74
2019-04-30T03:54:41.158Z,10.73
2019-04-30T03:57:07.265Z,10.74
2019-04-30T03:59:33.344Z,10.76
2019-04-30T04:02:01.361Z,10.77
2019-04-30T04:07:32.491Z,10.76
2019-04-30T04:10:03.321Z,10.72
2019-04-30T04:12:30.539Z,10.69
2019-04-30T04:14:56.983Z,10.70
2019-04-30T04:17:23.220Z,10.70
2019-04-30T04:19:50.371Z,10.69
2019-04-30T04:22:16.946Z,10.70
2019-04-30T04:24:42.964Z,10.72
2019-04-30T04:27:09.777Z,10.74
2019-04-30T04:29:35.819Z,10.78
2019-04-30T04:32:01.955Z,10.79
2019-04-30T04:34:30.310Z,10.80
2019-04-30T04:36:55.905Z,10.82
2019-04-30T04:39:21.825Z,10.78
2019-04-30T04:41:50.256Z,10.76
2019-04-30T04:44:16.011Z,10.78
2019-04-30T04:46:42.192Z,10.80
2019-04-30T04:49:09.017Z,10.76
2019-04-30T04:51:39.385Z,10.75
2019-04-30T04:54:03.595Z,10.76
2019-04-30T04:56:30.395Z,10.73
2019-04-30T04:58:56.745Z,10.71
2019-04-30T05:01:22.880Z,10.68
2019-04-30T05:03:49.173Z,10.65
2019-04-30T05:06:15.227Z,10.63
2019-04-30T05:08:41.241Z,10.59
2019-04-30T05:11:07.261Z,10.52
2019-04-30T05:13:34.749Z,10.49
2019-04-30T05:16:00.948Z,10.50
2019-04-30T05:18:28.994Z,10.52
2019-04-30T05:20:55.093Z,10.48
2019-04-30T05:23:21.880Z,10.54
2019-04-30T05:25:49.092Z,10.60
2019-04-30T05:28:15.456Z,10.60
2019-04-30T05:30:41.581Z,10.60
2019-04-30T05:33:08.848Z,10.60
2019-04-30T05:35:35.022Z,10.64
2019-04-30T05:38:01.161Z,10.64
2019-04-30T05:40:28.761Z,10.61
2019-04-30T05:42:54.925Z,10.60
2019-04-30T05:45:20.970Z,10.60
2019-04-30T05:47:50.246Z,10.62
2019-04-30T05:50:16.880Z,10.64
2019-04-30T05:52:43.006Z,10.67
2019-04-30T05:55:09.864Z,10.71
2019-04-30T05:57:35.997Z,10.67
2019-04-30T06:00:06.856Z,10.64
2019-04-30T06:02:33.986Z,10.58
2019-04-30T06:05:00.509Z,10.57
2019-04-30T06:07:26.659Z,10.60
2019-04-30T06:10:00.516Z,10.68
2019-04-30T06:12:37.157Z,10.76
2019-04-30T06:15:24.831Z,10.81
2019-04-30T06:18:00.272Z,10.81
2019-04-30T06:20:21.119Z,10.77
2019-04-30T06:22:51.881Z,10.68
2019-04-30T06:25:28.345Z,10.60
2019-04-30T06:27:44.865Z,10.54
2019-04-30T06:30:12.114Z,10.50
2019-04-30T06:32:39.525Z,10.56
2019-04-30T06:35:09.081Z,10.56
2019-04-30T06:37:35.242Z,10.54
2019-04-30T06:40:01.357Z,10.57
2019-04-30T06:42:29.251Z,10.50
2019-04-30T06:44:55.734Z,10.45
2019-04-30T06:47:32.397Z,10.52
2019-04-30T06:49:50.322Z,10.58
2019-04-30T06:52:20.622Z,10.65
2019-04-30T06:54:44.501Z,10.65
2019-04-30T06:57:12.119Z,10.66
2019-04-30T06:59:39.572Z,10.68
2019-04-30T07:02:05.891Z,10.68
2019-04-30T07:04:32.043Z,10.67
2019-04-30T07:06:58.990Z,10.66
2019-04-30T07:12:30.906Z,10.64
2019-04-30T07:14:59.203Z,10.64
2019-04-30T07:17:25.416Z,10.67
2019-04-30T07:19:56.534Z,10.70
2019-04-30T07:22:36.218Z,10.72
2019-04-30T07:24:49.505Z,10.73
2019-04-30T07:27:15.556Z,10.72
2019-04-30T07:29:41.689Z,10.75
2019-04-30T07:32:09.436Z,10.78
2019-04-30T07:34:37.114Z,10.82
2019-04-30T07:37:15.982Z,10.89
2019-04-30T07:39:33.447Z,10.98
2019-04-30T07:42:00.042Z,11.01
2019-04-30T07:44:35.476Z,10.91
2019-04-30T07:46:54.185Z,10.89
2019-04-30T07:49:20.715Z,10.92
2019-04-30T07:51:47.661Z,10.94
2019-04-30T07:54:15.838Z,10.94
2019-04-30T07:56:42.101Z,10.98
2019-04-30T07:59:11.096Z,10.96
2019-04-30T08:01:36.326Z,10.94
2019-04-30T08:04:13.158Z,10.91
2019-04-30T08:06:39.807Z,10.90
2019-04-30T08:09:10.320Z,10.92
2019-04-30T08:11:41.903Z,10.89
2019-04-30T08:14:05.048Z,10.88
2019-04-30T08:16:31.606Z,10.90
2019-04-30T08:18:59.183Z,10.88
2019-04-30T08:21:25.456Z,10.86
2019-04-30T08:23:51.628Z,10.89
2019-04-30T08:26:18.759Z,10.99
2019-04-30T08:28:45.060Z,11.04
2019-04-30T08:31:11.184Z,11.05
2019-04-30T08:33:37.300Z,11.09
2019-04-30T08:36:03.567Z,11.18
2019-04-30T08:38:30.086Z,11.28
2019-04-30T08:40:58.806Z,11.34
2019-04-30T08:43:24.794Z,11.40
2019-04-30T08:45:50.978Z,11.49
2019-04-30T08:48:18.984Z,11.56
2019-04-30T08:50:45.115Z,11.63
2019-04-30T08:53:11.537Z,11.69
2019-04-30T08:55:39.131Z,11.73
2019-04-30T08:58:09.950Z,11.76
2019-04-30T09:00:33.418Z,11.80
2019-04-30T09:02:59.576Z,11.86
2019-04-30T09:05:30.711Z,11.90
2019-04-30T09:07:56.817Z,11.95
2019-04-30T09:10:22.952Z,11.98
2019-04-30T09:12:49.510Z,12.02
2019-04-30T09:15:18.868Z,12.05
2019-04-30T09:17:58.156Z,12.07
2019-04-30T09:20:13.194Z,12.11
2019-04-30T09:22:39.413Z,12.14
2019-04-30T09:25:06.156Z,12.17
2019-04-30T09:27:32.176Z,12.18
2019-04-30T09:29:58.800Z,12.21
2019-04-30T09:32:25.054Z,12.11
2019-04-30T09:34:51.169Z,11.94
2019-04-30T09:37:18.722Z,11.93
2019-04-30T09:39:45.055Z,11.89
2019-04-30T09:42:11.169Z,11.82
2019-04-30T09:44:39.007Z,11.82
2019-04-30T09:47:05.307Z,11.78
2019-04-30T09:49:31.332Z,11.78
2019-04-30T09:51:59.516Z,11.84
2019-04-30T09:54:25.694Z,11.91
2019-04-30T09:56:52.759Z,11.96
2019-04-30T09:59:19.057Z,12.04
2019-04-30T10:01:45.166Z,12.07
2019-04-30T10:04:11.747Z,12.02
2019-04-30T10:06:40.188Z,12.08
2019-04-30T10:09:09.635Z,12.13
2019-04-30T10:11:37.909Z,12.09
2019-04-30T10:14:04.220Z,12.13
2019-04-30T10:16:32.243Z,12.16
2019-04-30T10:18:59.220Z,12.19
2019-04-30T10:21:26.672Z,12.22
2019-04-30T10:23:52.694Z,12.22
2019-04-30T10:26:18.846Z,12.14
2019-04-30T10:28:45.048Z,12.13
2019-04-30T10:31:11.160Z,12.21
2019-04-30T10:33:38.621Z,12.22
2019-04-30T10:36:04.793Z,12.20
2019-04-30T10:38:30.908Z,12.15
2019-04-30T10:40:58.743Z,12.16
2019-04-30T10:43:25.070Z,12.21
2019-04-30T10:45:51.183Z,12.26
2019-04-30T10:48:17.314Z,12.31
2019-04-30T10:50:43.424Z,12.34
2019-04-30T10:53:12.199Z,12.28
2019-04-30T10:55:38.739Z,12.10
2019-04-30T10:58:05.050Z,12.08
2019-04-30T11:00:38.805Z,12.00
2019-04-30T11:03:17.192Z,11.97
2019-04-30T11:05:33.787Z,11.99
2019-04-30T11:07:59.903Z,12.04
2019-04-30T11:10:26.358Z,12.05
2019-04-30T11:12:52.470Z,12.03
2019-04-30T11:15:20.645Z,12.04
2019-04-30T11:17:46.851Z,12.03
2019-04-30T11:20:13.420Z,12.03
2019-04-30T11:22:40.146Z,12.06
2019-04-30T11:25:06.944Z,11.98
2019-04-30T11:27:33.852Z,11.96
2019-04-30T11:30:03.539Z,11.93
2019-04-30T11:32:28.673Z,11.87
2019-04-30T11:34:54.670Z,11.86
2019-04-30T11:37:20.825Z,11.85
2019-04-30T11:39:47.048Z,11.91
2019-04-30T11:42:13.165Z,11.94
2019-04-30T11:44:40.317Z,11.97
2019-04-30T11:47:19.459Z,11.97
2019-04-30T11:49:45.495Z,11.89
2019-04-30T11:52:11.618Z,11.82
2019-04-30T11:54:48.706Z,11.75
2019-04-30T11:57:05.891Z,11.78
2019-04-30T11:59:32.000Z,11.79
2019-04-30T12:02:00.025Z,11.74
2019-04-30T12:04:26.077Z,11.70
2019-04-30T12:06:54.119Z,11.75
2019-04-30T12:09:25.011Z,11.76
2019-04-30T12:11:51.140Z,11.77
2019-04-30T12:14:18.183Z,11.79
2019-04-30T12:16:45.299Z,11.79
2019-04-30T12:19:11.435Z,11.85
2019-04-30T12:21:38.154Z,11.82
2019-04-30T12:24:04.273Z,11.77
2019-04-30T12:26:30.663Z,11.79
2019-04-30T12:28:56.796Z,11.78
2019-04-30T12:31:22.982Z,11.79
2019-04-30T12:33:49.090Z,11.75
2019-04-30T12:36:15.223Z,11.80
2019-04-30T12:38:41.350Z,11.75
2019-04-30T12:41:07.481Z,11.74
2019-04-30T12:43:33.637Z,11.77
2019-04-30T12:46:04.825Z,11.80
2019-04-30T12:48:30.224Z,11.80
2019-04-30T12:50:59.031Z,11.86
2019-04-30T12:53:27.100Z,11.88
2019-04-30T12:56:08.986Z,11.94
2019-04-30T12:58:35.355Z,11.97
2019-04-30T13:01:01.588Z,11.93
2019-04-30T13:03:28.355Z,11.88
2019-04-30T13:05:56.515Z,11.90
2019-04-30T13:08:23.556Z,11.97
2019-04-30T13:10:50.521Z,12.07
2019-04-30T13:13:17.702Z,12.08
2019-04-30T13:15:44.351Z,12.01
2019-04-30T13:18:10.522Z,11.99
2019-04-30T13:20:39.008Z,11.94
2019-04-30T13:23:04.827Z,11.96
2019-04-30T13:25:35.566Z,12.01
2019-04-30T13:28:01.121Z,12.04
2019-04-30T13:30:29.880Z,11.98
2019-04-30T13:33:00.715Z,11.94
2019-04-30T13:35:28.902Z,11.86
2019-04-30T13:38:06.109Z,11.82
2019-04-30T13:40:39.890Z,11.79
2019-04-30T13:43:07.962Z,11.81
2019-04-30T13:45:34.235Z,11.83
2019-04-30T13:48:00.487Z,11.74
2019-04-30T13:50:26.604Z,11.74
2019-04-30T13:52:52.745Z,11.79
2019-04-30T13:55:19.279Z,11.82
2019-04-30T13:57:45.598Z,11.86
2019-04-30T14:00:14.246Z,11.80
2019-04-30T14:02:44.741Z,11.68
2019-04-30T14:05:15.024Z,11.65
2019-04-30T14:07:51.872Z,11.73
2019-04-30T14:10:19.600Z,11.75
2019-04-30T14:12:47.777Z,11.69
2019-04-30T14:15:14.181Z,11.76
2019-04-30T14:17:40.393Z,11.85
2019-04-30T14:20:06.553Z,11.92
2019-04-30T14:22:32.805Z,11.96
2019-04-30T14:25:01.303Z,11.97
2019-04-30T14:27:27.524Z,11.97
2019-04-30T14:29:53.660Z,11.88
2019-04-30T14:32:19.895Z,11.87
2019-04-30T14:34:46.084Z,11.93
2019-04-30T14:40:17.122Z,12.04
2019-04-30T14:42:52.820Z,12.02
2019-04-30T14:45:21.832Z,11.95
2019-04-30T14:47:53.965Z,11.96
2019-04-30T14:50:22.559Z,11.98
2019-04-30T14:52:50.581Z,11.93
2019-04-30T14:55:21.517Z,11.96
2019-04-30T14:57:52.078Z,11.91
2019-04-30T15:00:26.400Z,11.92
2019-04-30T15:02:58.589Z,11.98
2019-04-30T15:05:25.059Z,12.02
2019-04-30T15:07:51.177Z,12.08
2019-04-30T15:10:17.414Z,12.08
2019-04-30T15:12:43.523Z,12.10
2019-04-30T15:15:12.296Z,12.04
2019-04-30T15:17:40.917Z,11.94
2019-04-30T15:20:08.802Z,11.86
2019-04-30T15:22:38.921Z,11.88
2019-04-30T15:25:05.324Z,11.92
2019-04-30T15:27:31.433Z,11.83
2019-04-30T15:29:57.584Z,11.76
2019-04-30T15:32:23.773Z,11.66
2019-04-30T15:34:51.716Z,11.62
2019-04-30T15:37:21.743Z,11.66
2019-04-30T15:39:46.451Z,11.69
2019-04-30T15:42:16.473Z,11.68
2019-04-30T15:44:45.712Z,11.70
2019-04-30T15:47:11.263Z,11.70
2019-04-30T15:49:37.397Z,11.60
2019-04-30T15:52:03.918Z,11.58
2019-04-30T15:54:32.835Z,11.61
2019-04-30T15:57:00.488Z,11.60
2019-04-30T15:59:40.519Z,11.64
2019-04-30T16:02:11.309Z,11.73
2019-04-30T16:04:41.871Z,11.67
2019-04-30T16:07:08.530Z,11.64
2019-04-30T16:09:38.386Z,11.63
2019-04-30T16:12:24.653Z,11.66
2019-04-30T16:14:50.762Z,11.65
2019-04-30T16:17:21.488Z,11.64
2019-04-30T16:19:47.614Z,11.47
2019-04-30T16:22:13.738Z,11.54
2019-04-30T16:24:39.862Z,11.53
2019-04-30T16:27:05.973Z,11.51
2019-04-30T16:29:32.124Z,11.35
2019-04-30T16:31:59.171Z,11.35
2019-04-30T16:34:25.490Z,11.41
2019-04-30T16:36:51.608Z,11.41
2019-04-30T16:39:18.680Z,11.33
2019-04-30T16:41:44.923Z,11.37
2019-04-30T16:44:11.086Z,11.40
2019-04-30T16:46:37.198Z,11.43
2019-04-30T16:49:03.322Z,11.40
2019-04-30T16:51:29.538Z,11.41
2019-04-30T16:53:55.674Z,11.43
2019-04-30T16:56:21.701Z,11.41
2019-04-30T16:59:04.981Z,11.35
2019-04-30T17:01:32.845Z,11.38
2019-04-30T17:04:06.754Z,11.39
2019-04-30T17:06:38.655Z,11.33
2019-04-30T17:09:10.336Z,11.30
2019-04-30T17:11:59.458Z,11.24
2019-04-30T17:14:25.694Z,11.13
2019-04-30T17:16:51.822Z,11.00
2019-04-30T17:19:19.086Z,11.03
2019-04-30T17:21:45.220Z,11.01
2019-04-30T17:24:14.086Z,11.00
2019-04-30T17:26:40.191Z,10.97
2019-04-30T17:29:06.165Z,10.95
2019-04-30T17:31:32.133Z,10.90
2019-04-30T17:33:58.105Z,10.97
2019-04-30T17:36:24.114Z,10.96
2019-04-30T17:38:50.082Z,10.88
2019-04-30T17:41:16.069Z,10.89
2019-04-30T17:43:42.066Z,10.94
2019-04-30T17:46:08.019Z,10.98
2019-04-30T17:48:34.027Z,10.95
2019-04-30T18:00:48.723Z,11.07
2019-04-30T18:03:58.705Z,11.07
2019-04-30T18:09:20.655Z,11.06
2019-04-30T18:11:46.623Z,11.10
2019-04-30T18:14:12.603Z,11.10
2019-04-30T18:16:38.810Z,11.11
2019-04-30T18:21:48.488Z,10.97
2019-04-30T18:24:25.375Z,10.95
2019-04-30T18:26:53.246Z,10.86
2019-04-30T18:29:19.238Z,10.88
2019-04-30T18:31:45.326Z,10.89
2019-04-30T18:34:11.293Z,10.83
2019-04-30T18:36:38.916Z,10.71
2019-04-30T18:39:05.526Z,10.68
2019-04-30T18:41:31.500Z,10.70
2019-04-30T18:43:59.561Z,10.56
2019-04-30T18:46:25.082Z,10.52
2019-04-30T18:48:52.792Z,10.59
2019-04-30T18:51:33.768Z,10.67
2019-04-30T18:53:49.349Z,10.72
2019-04-30T18:56:15.125Z,10.72
2019-04-30T18:58:43.228Z,10.72
2019-04-30T19:01:09.434Z,10.77
2019-04-30T19:03:35.524Z,10.68
2019-04-30T19:06:03.449Z,10.70
2019-04-30T19:08:34.091Z,10.67
2019-04-30T19:11:08.978Z,10.68
2019-04-30T19:16:27.946Z,10.68
2019-04-30T19:21:48.559Z,10.75
2019-04-30T19:24:14.438Z,10.71
2019-04-30T19:26:40.415Z,10.72
2019-04-30T19:29:07.738Z,10.75
2019-04-30T19:31:33.943Z,10.72
2019-04-30T19:33:59.828Z,10.72
2019-04-30T19:36:34.907Z,10.63
2019-04-30T19:38:53.592Z,10.59
2019-04-30T19:41:19.594Z,10.62
2019-04-30T19:43:45.682Z,10.47
2019-04-30T19:46:11.681Z,10.43
2019-04-30T19:48:37.641Z,10.35
2019-04-30T19:51:03.655Z,10.36
2019-04-30T19:53:30.384Z,10.18
2019-04-30T19:55:56.481Z,10.20
2019-04-30T19:58:29.463Z,10.22
2019-04-30T20:00:50.271Z,10.14
2019-04-30T20:03:16.235Z,10.17
2019-04-30T20:05:42.243Z,10.27
2019-04-30T20:08:11.033Z,10.33
2019-04-30T20:10:36.077Z,10.34
2019-04-30T20:13:05.829Z,10.36
2019-04-30T20:15:31.783Z,10.44
2019-04-30T20:18:01.052Z,10.47
2019-04-30T20:20:28.773Z,10.44
2019-04-30T20:22:55.066Z,10.35
2019-04-30T20:25:21.212Z,10.31
2019-04-30T20:27:47.186Z,10.31
2019-04-30T20:30:13.178Z,10.28
2019-04-30T20:32:39.197Z,10.30
2019-04-30T20:35:05.537Z,10.33
2019-04-30T20:37:32.194Z,10.31
2019-04-30T20:40:00.064Z,10.29
2019-04-30T20:42:26.033Z,10.28
2019-04-30T20:44:51.998Z,10.19
2019-04-30T20:47:18.408Z,10.15
2019-04-30T20:49:45.564Z,10.25
2019-04-30T20:52:11.525Z,10.28
2019-04-30T20:54:39.020Z,10.19
2019-04-30T20:57:05.003Z,10.13
2019-04-30T20:59:30.977Z,10.15
2019-04-30T21:01:57.358Z,10.24
2019-04-30T21:04:23.348Z,10.26
2019-04-30T21:06:49.714Z,10.21
2019-04-30T21:09:15.821Z,10.25
2019-04-30T21:11:41.789Z,10.34
2019-04-30T21:14:08.912Z,10.38
2019-04-30T21:16:34.943Z,10.44
2019-04-30T21:19:00.810Z,10.47
2019-04-30T21:21:28.818Z,10.37
2019-04-30T21:23:54.554Z,10.29
2019-04-30T21:26:20.539Z,10.16
2019-04-30T21:28:46.520Z,10.12
2019-04-30T21:31:30.701Z,10.02
2019-04-30T21:34:00.307Z,10.02
2019-04-30T21:36:28.456Z,10.01
2019-04-30T21:38:54.438Z,9.96
2019-04-30T21:41:20.533Z,9.98
2019-04-30T21:43:46.498Z,10.00
2019-04-30T21:46:12.495Z,9.99
2019-04-30T21:48:38.978Z,9.94
2019-04-30T21:51:04.964Z,9.96
2019-04-30T21:53:30.951Z,9.95
2019-04-30T21:55:56.947Z,9.99
2019-04-30T21:58:22.934Z,9.94
2019-04-30T22:01:07.685Z,9.97
2019-04-30T22:03:33.749Z,10.00
2019-04-30T22:05:59.814Z,10.01
2019-04-30T22:08:25.703Z,9.97
2019-04-30T22:10:51.702Z,9.92
2019-04-30T22:13:18.508Z,9.88
2019-04-30T22:15:44.589Z,9.87
2019-04-30T22:18:10.677Z,9.84
2019-04-30T22:20:38.750Z,9.90
2019-04-30T22:23:04.482Z,9.86
2019-04-30T22:25:30.486Z,9.87
2019-04-30T22:27:56.382Z,9.92
2019-04-30T22:30:22.450Z,9.92
2019-04-30T22:32:48.426Z,9.91
2019-04-30T22:35:28.164Z,9.95
2019-04-30T22:38:14.886Z,10.01
2019-04-30T22:40:40.853Z,10.07
2019-04-30T22:43:06.818Z,10.02
2019-04-30T22:45:34.699Z,10.07
2019-04-30T22:48:00.657Z,10.06
2019-04-30T22:50:26.569Z,10.04
2019-04-30T22:52:52.431Z,10.00
2019-04-30T22:55:18.527Z,10.02
2019-04-30T22:57:44.511Z,9.99
2019-04-30T23:00:12.367Z,10.03
2019-04-30T23:02:43.043Z,9.98
2019-04-30T23:05:10.912Z,10.01
2019-04-30T23:07:36.911Z,10.02
2019-04-30T23:10:04.214Z,10.04
2019-04-30T23:12:30.179Z,9.98
2019-04-30T23:14:56.358Z,9.90
2019-04-30T23:17:22.324Z,9.90
2019-04-30T23:19:49.629Z,9.85
2019-04-30T23:22:15.781Z,9.86
2019-04-30T23:24:41.842Z,9.83
2019-04-30T23:27:07.793Z,9.75
2019-04-30T23:29:33.764Z,9.80
2019-04-30T23:31:59.737Z,9.83
2019-04-30T23:34:25.692Z,9.79
2019-04-30T23:36:51.656Z,9.79
2019-04-30T23:39:17.629Z,9.80
2019-04-30T23:41:43.590Z,9.83
2019-04-30T23:44:09.617Z,9.73
2019-04-30T23:46:35.604Z,9.74
2019-04-30T23:49:01.604Z,9.63
2019-04-30T23:51:27.565Z,9.58
2019-04-30T23:53:53.531Z,9.58
2019-04-30T23:56:19.509Z,9.56
2019-04-30T23:58:45.473Z,9.54
